sensor_id;sensor_type;location;lat;lon;timestamp;P1;durP1;ratioP1;P2;durP2;ratioP2
47103;SDS011;32853;52.164;5.400;2024-02-16T00:00:59;5.15;;;1.45;;
47103;SDS011;32853;52.164;5.400;2024-02-16T00:03:25;7.50;;;2.20;;
47103;SDS011;32853;52.164;5.400;2024-02-16T00:06:02;3.42;;;1.60;;
47103;SDS011;32853;52.164;5.400;2024-02-16T00:08:30;2.15;;;1.30;;
47103;SDS011;32853;52.164;5.400;2024-02-16T00:10:55;6.10;;;1.45;;
47103;SDS011;32853;52.164;5.400;2024-02-16T00:13:21;8.93;;;1.60;;
47103;SDS011;32853;52.164;5.400;2024-02-16T00:15:49;4.63;;;1.55;;
47103;SDS011;32853;52.164;5.400;2024-02-16T00:18:14;4.72;;;1.92;;
47103;SDS011;32853;52.164;5.400;2024-02-16T00:20:39;3.25;;;1.50;;
47103;SDS011;32853;52.164;5.400;2024-02-16T00:23:05;4.63;;;1.25;;
47103;SDS011;32853;52.164;5.400;2024-02-16T00:25:31;2.63;;;1.52;;
47103;SDS011;32853;52.164;5.400;2024-02-16T00:27:57;9.40;;;1.70;;
47103;SDS011;32853;52.164;5.400;2024-02-16T00:30:23;4.18;;;1.30;;
47103;SDS011;32853;52.164;5.400;2024-02-16T00:32:49;6.40;;;1.35;;
47103;SDS011;32853;52.164;5.400;2024-02-16T00:35:15;4.30;;;1.20;;
47103;SDS011;32853;52.164;5.400;2024-02-16T00:37:44;2.97;;;1.20;;
47103;SDS011;32853;52.164;5.400;2024-02-16T00:40:11;6.50;;;1.45;;
47103;SDS011;32853;52.164;5.400;2024-02-16T00:42:37;3.65;;;1.38;;
47103;SDS011;32853;52.164;5.400;2024-02-16T00:45:04;3.00;;;1.50;;
47103;SDS011;32853;52.164;5.400;2024-02-16T00:47:30;4.82;;;1.58;;
47103;SDS011;32853;52.164;5.400;2024-02-16T00:49:55;2.50;;;1.67;;
47103;SDS011;32853;52.164;5.400;2024-02-16T00:52:37;7.78;;;1.35;;
47103;SDS011;32853;52.164;5.400;2024-02-16T00:55:04;3.90;;;1.80;;
47103;SDS011;32853;52.164;5.400;2024-02-16T00:57:30;6.25;;;1.25;;
47103;SDS011;32853;52.164;5.400;2024-02-16T00:59:55;3.00;;;1.67;;
47103;SDS011;32853;52.164;5.400;2024-02-16T01:02:21;6.85;;;3.30;;
47103;SDS011;32853;52.164;5.400;2024-02-16T01:04:47;4.07;;;1.70;;
47103;SDS011;32853;52.164;5.400;2024-02-16T01:07:15;2.70;;;1.40;;
47103;SDS011;32853;52.164;5.400;2024-02-16T01:09:44;5.47;;;1.67;;
47103;SDS011;32853;52.164;5.400;2024-02-16T01:12:09;7.80;;;1.55;;
47103;SDS011;32853;52.164;5.400;2024-02-16T01:14:34;3.50;;;1.42;;
47103;SDS011;32853;52.164;5.400;2024-02-16T01:17:03;4.00;;;1.50;;
47103;SDS011;32853;52.164;5.400;2024-02-16T01:19:28;8.65;;;1.77;;
47103;SDS011;32853;52.164;5.400;2024-02-16T01:21:56;3.30;;;1.73;;
47103;SDS011;32853;52.164;5.400;2024-02-16T01:24:24;5.30;;;1.10;;
47103;SDS011;32853;52.164;5.400;2024-02-16T01:26:49;3.88;;;1.35;;
47103;SDS011;32853;52.164;5.400;2024-02-16T01:29:15;2.67;;;1.45;;
47103;SDS011;32853;52.164;5.400;2024-02-16T01:31:41;8.32;;;2.10;;
47103;SDS011;32853;52.164;5.400;2024-02-16T01:34:06;3.45;;;1.63;;
47103;SDS011;32853;52.164;5.400;2024-02-16T01:36:32;2.83;;;1.20;;
47103;SDS011;32853;52.164;5.400;2024-02-16T01:38:57;4.38;;;1.77;;
47103;SDS011;32853;52.164;5.400;2024-02-16T01:41:23;6.90;;;1.98;;
47103;SDS011;32853;52.164;5.400;2024-02-16T01:43:52;6.63;;;1.92;;
47103;SDS011;32853;52.164;5.400;2024-02-16T01:46:19;2.30;;;1.25;;
47103;SDS011;32853;52.164;5.400;2024-02-16T01:48:45;5.28;;;1.60;;
47103;SDS011;32853;52.164;5.400;2024-02-16T01:51:10;5.55;;;1.45;;
47103;SDS011;32853;52.164;5.400;2024-02-16T01:53:37;3.65;;;1.33;;
47103;SDS011;32853;52.164;5.400;2024-02-16T01:56:06;3.50;;;1.75;;
47103;SDS011;32853;52.164;5.400;2024-02-16T01:58:33;4.60;;;1.73;;
47103;SDS011;32853;52.164;5.400;2024-02-16T02:01:09;3.30;;;1.30;;
47103;SDS011;32853;52.164;5.400;2024-02-16T02:03:53;3.75;;;1.85;;
47103;SDS011;32853;52.164;5.400;2024-02-16T02:06:18;7.25;;;1.25;;
47103;SDS011;32853;52.164;5.400;2024-02-16T02:08:44;4.97;;;1.52;;
47103;SDS011;32853;52.164;5.400;2024-02-16T02:11:10;5.40;;;1.27;;
47103;SDS011;32853;52.164;5.400;2024-02-16T02:13:35;3.10;;;1.77;;
47103;SDS011;32853;52.164;5.400;2024-02-16T02:16:02;3.45;;;1.55;;
47103;SDS011;32853;52.164;5.400;2024-02-16T02:18:30;3.05;;;1.45;;
47103;SDS011;32853;52.164;5.400;2024-02-16T02:20:56;3.38;;;1.50;;
47103;SDS011;32853;52.164;5.400;2024-02-16T02:23:21;3.63;;;2.40;;
47103;SDS011;32853;52.164;5.400;2024-02-16T02:25:48;7.28;;;1.50;;
47103;SDS011;32853;52.164;5.400;2024-02-16T02:28:17;4.25;;;1.95;;
47103;SDS011;32853;52.164;5.400;2024-02-16T02:30:43;3.08;;;1.30;;
47103;SDS011;32853;52.164;5.400;2024-02-16T02:33:10;2.97;;;1.55;;
47103;SDS011;32853;52.164;5.400;2024-02-16T02:35:37;3.08;;;1.67;;
47103;SDS011;32853;52.164;5.400;2024-02-16T02:38:05;1.88;;;1.33;;
47103;SDS011;32853;52.164;5.400;2024-02-16T02:40:32;6.57;;;2.38;;
47103;SDS011;32853;52.164;5.400;2024-02-16T02:43:00;4.72;;;1.60;;
47103;SDS011;32853;52.164;5.400;2024-02-16T02:45:27;8.75;;;1.95;;
47103;SDS011;32853;52.164;5.400;2024-02-16T02:47:59;2.85;;;1.48;;
47103;SDS011;32853;52.164;5.400;2024-02-16T02:50:25;5.78;;;1.88;;
47103;SDS011;32853;52.164;5.400;2024-02-16T02:52:50;2.65;;;1.45;;
47103;SDS011;32853;52.164;5.400;2024-02-16T02:55:16;4.53;;;2.03;;
47103;SDS011;32853;52.164;5.400;2024-02-16T02:57:41;3.78;;;1.58;;
47103;SDS011;32853;52.164;5.400;2024-02-16T03:00:07;3.33;;;1.33;;
47103;SDS011;32853;52.164;5.400;2024-02-16T03:02:37;6.50;;;2.00;;
47103;SDS011;32853;52.164;5.400;2024-02-16T03:05:03;3.15;;;1.40;;
47103;SDS011;32853;52.164;5.400;2024-02-16T03:07:30;4.93;;;1.48;;
47103;SDS011;32853;52.164;5.400;2024-02-16T03:10:04;3.40;;;1.73;;
47103;SDS011;32853;52.164;5.400;2024-02-16T03:12:31;4.40;;;1.90;;
47103;SDS011;32853;52.164;5.400;2024-02-16T03:14:59;2.28;;;1.30;;
47103;SDS011;32853;52.164;5.400;2024-02-16T03:17:24;6.65;;;1.60;;
47103;SDS011;32853;52.164;5.400;2024-02-16T03:19:50;2.67;;;1.35;;
47103;SDS011;32853;52.164;5.400;2024-02-16T03:22:15;2.78;;;1.48;;
47103;SDS011;32853;52.164;5.400;2024-02-16T03:24:41;2.65;;;1.20;;
47103;SDS011;32853;52.164;5.400;2024-02-16T03:27:09;9.48;;;1.77;;
47103;SDS011;32853;52.164;5.400;2024-02-16T03:29:35;2.38;;;1.67;;
47103;SDS011;32853;52.164;5.400;2024-02-16T03:32:03;2.72;;;1.30;;
47103;SDS011;32853;52.164;5.400;2024-02-16T03:37:03;3.90;;;1.45;;
47103;SDS011;32853;52.164;5.400;2024-02-16T03:39:29;4.50;;;1.77;;
47103;SDS011;32853;52.164;5.400;2024-02-16T03:44:27;8.07;;;2.05;;
47103;SDS011;32853;52.164;5.400;2024-02-16T03:47:04;3.03;;;1.88;;
47103;SDS011;32853;52.164;5.400;2024-02-16T03:49:29;2.47;;;1.52;;
47103;SDS011;32853;52.164;5.400;2024-02-16T03:51:55;6.75;;;2.08;;
47103;SDS011;32853;52.164;5.400;2024-02-16T03:54:20;4.18;;;1.65;;
47103;SDS011;32853;52.164;5.400;2024-02-16T03:56:46;7.90;;;2.13;;
47103;SDS011;32853;52.164;5.400;2024-02-16T03:59:11;3.08;;;1.73;;
47103;SDS011;32853;52.164;5.400;2024-02-16T04:01:37;3.50;;;1.90;;
47103;SDS011;32853;52.164;5.400;2024-02-16T04:04:13;7.18;;;1.50;;
47103;SDS011;32853;52.164;5.400;2024-02-16T04:06:49;6.97;;;2.28;;
47103;SDS011;32853;52.164;5.400;2024-02-16T04:09:15;5.60;;;2.17;;
47103;SDS011;32853;52.164;5.400;2024-02-16T04:11:47;7.80;;;2.03;;
47103;SDS011;32853;52.164;5.400;2024-02-16T04:14:12;5.80;;;2.25;;
47103;SDS011;32853;52.164;5.400;2024-02-16T04:16:38;3.65;;;1.63;;
47103;SDS011;32853;52.164;5.400;2024-02-16T04:19:06;1.77;;;1.48;;
47103;SDS011;32853;52.164;5.400;2024-02-16T04:21:32;3.00;;;1.50;;
47103;SDS011;32853;52.164;5.400;2024-02-16T04:23:57;4.68;;;1.90;;
47103;SDS011;32853;52.164;5.400;2024-02-16T04:26:23;4.00;;;1.75;;
47103;SDS011;32853;52.164;5.400;2024-02-16T04:28:48;7.07;;;2.05;;
47103;SDS011;32853;52.164;5.400;2024-02-16T04:31:17;4.55;;;1.88;;
47103;SDS011;32853;52.164;5.400;2024-02-16T04:33:49;6.15;;;1.88;;
47103;SDS011;32853;52.164;5.400;2024-02-16T04:39:01;4.05;;;1.80;;
47103;SDS011;32853;52.164;5.400;2024-02-16T04:41:26;6.05;;;2.20;;
47103;SDS011;32853;52.164;5.400;2024-02-16T04:43:57;5.65;;;2.05;;
47103;SDS011;32853;52.164;5.400;2024-02-16T04:46:23;6.50;;;2.33;;
47103;SDS011;32853;52.164;5.400;2024-02-16T04:48:50;4.90;;;2.15;;
47103;SDS011;32853;52.164;5.400;2024-02-16T04:51:16;4.43;;;1.73;;
47103;SDS011;32853;52.164;5.400;2024-02-16T04:53:41;10.20;;;1.90;;
47103;SDS011;32853;52.164;5.400;2024-02-16T04:56:07;6.90;;;1.77;;
47103;SDS011;32853;52.164;5.400;2024-02-16T04:58:33;4.57;;;1.90;;
47103;SDS011;32853;52.164;5.400;2024-02-16T05:00:58;4.85;;;2.08;;
47103;SDS011;32853;52.164;5.400;2024-02-16T05:03:24;3.20;;;1.88;;
47103;SDS011;32853;52.164;5.400;2024-02-16T05:05:50;2.92;;;1.95;;
47103;SDS011;32853;52.164;5.400;2024-02-16T05:08:21;4.18;;;2.03;;
47103;SDS011;32853;52.164;5.400;2024-02-16T05:10:49;2.88;;;1.70;;
47103;SDS011;32853;52.164;5.400;2024-02-16T05:13:15;4.50;;;1.60;;
47103;SDS011;32853;52.164;5.400;2024-02-16T05:15:40;8.43;;;2.38;;
47103;SDS011;32853;52.164;5.400;2024-02-16T05:18:13;4.70;;;1.77;;
47103;SDS011;32853;52.164;5.400;2024-02-16T05:20:39;2.97;;;1.55;;
47103;SDS011;32853;52.164;5.400;2024-02-16T05:25:40;4.45;;;1.80;;
47103;SDS011;32853;52.164;5.400;2024-02-16T05:28:06;4.40;;;1.70;;
47103;SDS011;32853;52.164;5.400;2024-02-16T05:30:31;2.45;;;1.33;;
47103;SDS011;32853;52.164;5.400;2024-02-16T05:32:57;2.45;;;1.20;;
47103;SDS011;32853;52.164;5.400;2024-02-16T05:35:24;4.20;;;1.85;;
47103;SDS011;32853;52.164;5.400;2024-02-16T05:37:54;3.63;;;1.70;;
47103;SDS011;32853;52.164;5.400;2024-02-16T05:40:20;6.28;;;1.75;;
47103;SDS011;32853;52.164;5.400;2024-02-16T05:42:54;3.50;;;1.63;;
47103;SDS011;32853;52.164;5.400;2024-02-16T05:45:23;5.78;;;2.30;;
47103;SDS011;32853;52.164;5.400;2024-02-16T05:47:49;3.75;;;1.65;;
47103;SDS011;32853;52.164;5.400;2024-02-16T05:50:15;5.15;;;1.83;;
47103;SDS011;32853;52.164;5.400;2024-02-16T05:52:45;3.25;;;1.40;;
47103;SDS011;32853;52.164;5.400;2024-02-16T05:55:12;4.80;;;2.05;;
47103;SDS011;32853;52.164;5.400;2024-02-16T05:57:40;7.10;;;2.22;;
47103;SDS011;32853;52.164;5.400;2024-02-16T06:00:07;7.47;;;1.60;;
47103;SDS011;32853;52.164;5.400;2024-02-16T06:02:34;4.30;;;2.00;;
47103;SDS011;32853;52.164;5.400;2024-02-16T06:05:07;10.30;;;2.00;;
47103;SDS011;32853;52.164;5.400;2024-02-16T06:07:32;3.88;;;1.83;;
47103;SDS011;32853;52.164;5.400;2024-02-16T06:09:58;4.60;;;1.73;;
47103;SDS011;32853;52.164;5.400;2024-02-16T06:12:23;9.50;;;1.88;;
47103;SDS011;32853;52.164;5.400;2024-02-16T06:14:49;4.57;;;1.83;;
47103;SDS011;32853;52.164;5.400;2024-02-16T06:17:15;3.28;;;1.60;;
47103;SDS011;32853;52.164;5.400;2024-02-16T06:19:41;4.90;;;2.25;;
47103;SDS011;32853;52.164;5.400;2024-02-16T06:22:07;5.85;;;2.30;;
47103;SDS011;32853;52.164;5.400;2024-02-16T06:27:37;3.92;;;2.20;;
47103;SDS011;32853;52.164;5.400;2024-02-16T06:30:07;3.67;;;1.63;;
47103;SDS011;32853;52.164;5.400;2024-02-16T06:32:39;4.13;;;1.50;;
47103;SDS011;32853;52.164;5.400;2024-02-16T06:35:11;4.63;;;1.85;;
47103;SDS011;32853;52.164;5.400;2024-02-16T06:37:56;3.75;;;1.35;;
47103;SDS011;32853;52.164;5.400;2024-02-16T06:40:26;3.40;;;1.60;;
47103;SDS011;32853;52.164;5.400;2024-02-16T06:46:35;2.35;;;1.10;;
47103;SDS011;32853;52.164;5.400;2024-02-16T06:49:02;3.88;;;1.08;;
47103;SDS011;32853;52.164;5.400;2024-02-16T06:51:33;1.63;;;1.15;;
47103;SDS011;32853;52.164;5.400;2024-02-16T06:54:01;4.97;;;1.48;;
47103;SDS011;32853;52.164;5.400;2024-02-16T06:56:27;5.32;;;2.08;;
47103;SDS011;32853;52.164;5.400;2024-02-16T06:58:55;2.60;;;1.60;;
47103;SDS011;32853;52.164;5.400;2024-02-16T07:01:26;8.10;;;2.03;;
47103;SDS011;32853;52.164;5.400;2024-02-16T07:09:25;3.72;;;1.52;;
47103;SDS011;32853;52.164;5.400;2024-02-16T07:11:53;3.42;;;1.35;;
47103;SDS011;32853;52.164;5.400;2024-02-16T07:14:23;4.68;;;1.48;;
47103;SDS011;32853;52.164;5.400;2024-02-16T08:26:17;4.70;;;2.45;;
47103;SDS011;32853;52.164;5.400;2024-02-16T08:29:46;8.10;;;2.25;;
47103;SDS011;32853;52.164;5.400;2024-02-16T08:32:38;7.55;;;2.42;;
47103;SDS011;32853;52.164;5.400;2024-02-16T08:46:00;3.38;;;1.92;;
47103;SDS011;32853;52.164;5.400;2024-02-16T08:48:30;7.72;;;2.95;;
47103;SDS011;32853;52.164;5.400;2024-02-16T08:50:56;4.65;;;1.95;;
47103;SDS011;32853;52.164;5.400;2024-02-16T08:53:23;6.10;;;2.13;;
47103;SDS011;32853;52.164;5.400;2024-02-16T08:55:56;9.65;;;2.20;;
47103;SDS011;32853;52.164;5.400;2024-02-16T08:58:26;7.57;;;2.50;;
47103;SDS011;32853;52.164;5.400;2024-02-16T09:00:51;5.03;;;2.35;;
47103;SDS011;32853;52.164;5.400;2024-02-16T09:03:17;5.00;;;2.20;;
47103;SDS011;32853;52.164;5.400;2024-02-16T09:05:42;9.80;;;2.72;;
47103;SDS011;32853;52.164;5.400;2024-02-16T09:08:10;6.82;;;2.38;;
47103;SDS011;32853;52.164;5.400;2024-02-16T09:10:37;5.65;;;2.60;;
47103;SDS011;32853;52.164;5.400;2024-02-16T09:13:21;3.58;;;1.83;;
47103;SDS011;32853;52.164;5.400;2024-02-16T09:15:53;4.05;;;2.20;;
47103;SDS011;32853;52.164;5.400;2024-02-16T09:18:21;6.45;;;2.30;;
47103;SDS011;32853;52.164;5.400;2024-02-16T09:20:46;6.97;;;2.28;;
47103;SDS011;32853;52.164;5.400;2024-02-16T09:23:14;7.15;;;1.90;;
47103;SDS011;32853;52.164;5.400;2024-02-16T09:25:43;5.90;;;2.65;;
47103;SDS011;32853;52.164;5.400;2024-02-16T09:28:23;6.35;;;2.75;;
47103;SDS011;32853;52.164;5.400;2024-02-16T09:31:07;8.63;;;3.22;;
47103;SDS011;32853;52.164;5.400;2024-02-16T09:36:27;5.60;;;2.53;;
47103;SDS011;32853;52.164;5.400;2024-02-16T09:38:56;10.20;;;3.47;;
47103;SDS011;32853;52.164;5.400;2024-02-16T09:41:27;5.78;;;2.30;;
47103;SDS011;32853;52.164;5.400;2024-02-16T09:44:03;6.10;;;2.55;;
47103;SDS011;32853;52.164;5.400;2024-02-16T09:46:32;6.82;;;2.63;;
47103;SDS011;32853;52.164;5.400;2024-02-16T09:49:04;3.72;;;2.45;;
47103;SDS011;32853;52.164;5.400;2024-02-16T09:51:29;7.43;;;2.63;;
47103;SDS011;32853;52.164;5.400;2024-02-16T09:54:01;6.60;;;2.45;;
47103;SDS011;32853;52.164;5.400;2024-02-16T09:56:28;5.20;;;2.72;;
47103;SDS011;32853;52.164;5.400;2024-02-16T09:58:56;9.75;;;3.25;;
47103;SDS011;32853;52.164;5.400;2024-02-16T10:01:22;11.40;;;2.97;;
47103;SDS011;32853;52.164;5.400;2024-02-16T10:03:49;9.18;;;2.85;;
47103;SDS011;32853;52.164;5.400;2024-02-16T10:06:15;4.57;;;2.85;;
47103;SDS011;32853;52.164;5.400;2024-02-16T10:08:51;9.23;;;3.22;;
47103;SDS011;32853;52.164;5.400;2024-02-16T10:11:18;4.97;;;2.88;;
47103;SDS011;32853;52.164;5.400;2024-02-16T10:13:58;9.27;;;3.25;;
47103;SDS011;32853;52.164;5.400;2024-02-16T10:16:24;6.13;;;3.30;;
47103;SDS011;32853;52.164;5.400;2024-02-16T10:18:54;8.18;;;3.47;;
47103;SDS011;32853;52.164;5.400;2024-02-16T10:21:27;16.40;;;3.25;;
47103;SDS011;32853;52.164;5.400;2024-02-16T10:24:06;6.85;;;3.13;;
47103;SDS011;32853;52.164;5.400;2024-02-16T10:26:37;7.50;;;3.35;;
47103;SDS011;32853;52.164;5.400;2024-02-16T10:29:09;9.63;;;3.35;;
47103;SDS011;32853;52.164;5.400;2024-02-16T10:31:52;11.07;;;5.97;;
47103;SDS011;32853;52.164;5.400;2024-02-16T10:34:17;6.28;;;2.78;;
47103;SDS011;32853;52.164;5.400;2024-02-16T10:36:46;8.18;;;3.47;;
47103;SDS011;32853;52.164;5.400;2024-02-16T10:39:12;7.38;;;3.70;;
47103;SDS011;32853;52.164;5.400;2024-02-16T10:41:43;5.15;;;3.25;;
47103;SDS011;32853;52.164;5.400;2024-02-16T10:44:09;12.00;;;3.85;;
47103;SDS011;32853;52.164;5.400;2024-02-16T10:46:50;7.25;;;3.15;;
47103;SDS011;32853;52.164;5.400;2024-02-16T10:51:57;9.27;;;4.30;;
47103;SDS011;32853;52.164;5.400;2024-02-16T10:54:30;9.60;;;3.75;;
47103;SDS011;32853;52.164;5.400;2024-02-16T10:57:00;7.85;;;4.18;;
47103;SDS011;32853;52.164;5.400;2024-02-16T10:59:52;7.47;;;4.07;;
47103;SDS011;32853;52.164;5.400;2024-02-16T11:02:20;9.40;;;3.88;;
47103;SDS011;32853;52.164;5.400;2024-02-16T11:04:49;7.32;;;4.43;;
47103;SDS011;32853;52.164;5.400;2024-02-16T11:07:19;12.63;;;4.10;;
47103;SDS011;32853;52.164;5.400;2024-02-16T11:09:45;11.80;;;4.20;;
47103;SDS011;32853;52.164;5.400;2024-02-16T11:12:15;12.20;;;5.40;;
47103;SDS011;32853;52.164;5.400;2024-02-16T11:14:41;9.18;;;4.80;;
47103;SDS011;32853;52.164;5.400;2024-02-16T11:17:13;10.05;;;4.63;;
47103;SDS011;32853;52.164;5.400;2024-02-16T11:19:50;9.25;;;4.68;;
47103;SDS011;32853;52.164;5.400;2024-02-16T11:22:28;12.50;;;4.63;;
47103;SDS011;32853;52.164;5.400;2024-02-16T11:24:53;17.17;;;5.47;;
47103;SDS011;32853;52.164;5.400;2024-02-16T11:27:34;8.98;;;4.38;;
47103;SDS011;32853;52.164;5.400;2024-02-16T11:30:15;10.90;;;5.85;;
47103;SDS011;32853;52.164;5.400;2024-02-16T11:32:47;7.55;;;4.63;;
47103;SDS011;32853;52.164;5.400;2024-02-16T11:35:15;7.22;;;4.10;;
47103;SDS011;32853;52.164;5.400;2024-02-16T11:37:46;9.40;;;5.28;;
47103;SDS011;32853;52.164;5.400;2024-02-16T11:40:15;7.28;;;4.93;;
47103;SDS011;32853;52.164;5.400;2024-02-16T11:42:45;13.80;;;5.35;;
47103;SDS011;32853;52.164;5.400;2024-02-16T11:45:24;11.48;;;4.90;;
47103;SDS011;32853;52.164;5.400;2024-02-16T11:56:52;8.15;;;4.78;;
47103;SDS011;32853;52.164;5.400;2024-02-16T12:02:17;12.40;;;5.65;;
47103;SDS011;32853;52.164;5.400;2024-02-16T12:04:47;10.65;;;5.60;;
47103;SDS011;32853;52.164;5.400;2024-02-16T12:07:16;13.00;;;5.25;;
47103;SDS011;32853;52.164;5.400;2024-02-16T12:09:54;12.55;;;5.88;;
47103;SDS011;32853;52.164;5.400;2024-02-16T12:12:26;18.52;;;5.38;;
47103;SDS011;32853;52.164;5.400;2024-02-16T12:14:58;10.27;;;5.10;;
47103;SDS011;32853;52.164;5.400;2024-02-16T12:17:30;11.05;;;4.85;;
47103;SDS011;32853;52.164;5.400;2024-02-16T12:20:00;10.43;;;5.07;;
47103;SDS011;32853;52.164;5.400;2024-02-16T12:22:26;8.40;;;4.15;;
47103;SDS011;32853;52.164;5.400;2024-02-16T12:27:31;12.27;;;3.35;;
47103;SDS011;32853;52.164;5.400;2024-02-16T12:33:20;7.10;;;3.00;;
47103;SDS011;32853;52.164;5.400;2024-02-16T12:35:46;5.80;;;2.72;;
47103;SDS011;32853;52.164;5.400;2024-02-16T12:38:16;11.23;;;5.45;;
47103;SDS011;32853;52.164;5.400;2024-02-16T12:40:44;6.57;;;2.50;;
47103;SDS011;32853;52.164;5.400;2024-02-16T12:43:13;5.35;;;1.90;;
47103;SDS011;32853;52.164;5.400;2024-02-16T12:45:39;4.35;;;2.00;;
47103;SDS011;32853;52.164;5.400;2024-02-16T12:48:13;3.65;;;1.52;;
47103;SDS011;32853;52.164;5.400;2024-02-16T12:50:39;5.18;;;2.13;;
47103;SDS011;32853;52.164;5.400;2024-02-16T12:53:07;2.85;;;1.40;;
47103;SDS011;32853;52.164;5.400;2024-02-16T12:55:32;3.00;;;1.80;;
47103;SDS011;32853;52.164;5.400;2024-02-16T12:57:58;4.35;;;1.90;;
47103;SDS011;32853;52.164;5.400;2024-02-16T13:00:27;3.78;;;1.73;;
47103;SDS011;32853;52.164;5.400;2024-02-16T13:02:59;4.05;;;2.05;;
47103;SDS011;32853;52.164;5.400;2024-02-16T13:05:24;4.15;;;1.52;;
47103;SDS011;32853;52.164;5.400;2024-02-16T13:07:50;3.20;;;1.60;;
47103;SDS011;32853;52.164;5.400;2024-02-16T13:10:15;2.95;;;1.60;;
47103;SDS011;32853;52.164;5.400;2024-02-16T13:12:40;5.80;;;1.67;;
47103;SDS011;32853;52.164;5.400;2024-02-16T13:15:08;4.68;;;1.73;;
47103;SDS011;32853;52.164;5.400;2024-02-16T13:17:33;5.30;;;2.85;;
47103;SDS011;32853;52.164;5.400;2024-02-16T13:19:59;4.80;;;1.70;;
47103;SDS011;32853;52.164;5.400;2024-02-16T13:22:31;2.42;;;1.25;;
47103;SDS011;32853;52.164;5.400;2024-02-16T13:24:56;3.28;;;1.45;;
47103;SDS011;32853;52.164;5.400;2024-02-16T13:27:21;3.15;;;1.50;;
47103;SDS011;32853;52.164;5.400;2024-02-16T13:29:51;5.05;;;2.08;;
47103;SDS011;32853;52.164;5.400;2024-02-16T13:32:17;3.83;;;1.33;;
47103;SDS011;32853;52.164;5.400;2024-02-16T13:34:42;3.72;;;1.88;;
47103;SDS011;32853;52.164;5.400;2024-02-16T13:37:08;5.55;;;1.40;;
47103;SDS011;32853;52.164;5.400;2024-02-16T13:39:33;2.97;;;1.20;;
47103;SDS011;32853;52.164;5.400;2024-02-16T13:41:59;2.08;;;1.10;;
47103;SDS011;32853;52.164;5.400;2024-02-16T13:44:24;5.43;;;1.40;;
47103;SDS011;32853;52.164;5.400;2024-02-16T13:46:50;6.40;;;1.42;;
47103;SDS011;32853;52.164;5.400;2024-02-16T13:49:20;2.35;;;1.30;;
47103;SDS011;32853;52.164;5.400;2024-02-16T13:54:14;4.72;;;2.13;;
47103;SDS011;32853;52.164;5.400;2024-02-16T13:56:44;4.97;;;1.60;;
47103;SDS011;32853;52.164;5.400;2024-02-16T13:59:10;1.42;;;1.10;;
47103;SDS011;32853;52.164;5.400;2024-02-16T14:01:35;3.22;;;1.13;;
47103;SDS011;32853;52.164;5.400;2024-02-16T14:04:02;3.95;;;1.60;;
47103;SDS011;32853;52.164;5.400;2024-02-16T14:06:28;2.72;;;1.38;;
47103;SDS011;32853;52.164;5.400;2024-02-16T14:08:53;1.95;;;1.20;;
47103;SDS011;32853;52.164;5.400;2024-02-16T14:11:19;4.50;;;1.20;;
47103;SDS011;32853;52.164;5.400;2024-02-16T14:16:20;4.00;;;1.80;;
47103;SDS011;32853;52.164;5.400;2024-02-16T14:21:17;6.55;;;1.90;;
47103;SDS011;32853;52.164;5.400;2024-02-16T14:23:55;4.05;;;1.80;;
47103;SDS011;32853;52.164;5.400;2024-02-16T14:26:20;2.95;;;1.90;;
47103;SDS011;32853;52.164;5.400;2024-02-16T14:28:45;3.63;;;2.08;;
47103;SDS011;32853;52.164;5.400;2024-02-16T14:31:11;5.80;;;1.92;;
47103;SDS011;32853;52.164;5.400;2024-02-16T14:33:39;2.45;;;1.50;;
47103;SDS011;32853;52.164;5.400;2024-02-16T14:36:04;5.25;;;2.15;;
47103;SDS011;32853;52.164;5.400;2024-02-16T14:38:31;3.22;;;1.25;;
47103;SDS011;32853;52.164;5.400;2024-02-16T14:40:57;7.43;;;1.48;;
47103;SDS011;32853;52.164;5.400;2024-02-16T14:43:30;5.10;;;1.90;;
47103;SDS011;32853;52.164;5.400;2024-02-16T14:45:59;5.45;;;1.80;;
47103;SDS011;32853;52.164;5.400;2024-02-16T14:48:28;2.35;;;1.52;;
47103;SDS011;32853;52.164;5.400;2024-02-16T14:50:55;2.17;;;1.55;;
47103;SDS011;32853;52.164;5.400;2024-02-16T14:53:22;3.88;;;2.08;;
47103;SDS011;32853;52.164;5.400;2024-02-16T14:55:51;3.28;;;1.48;;
47103;SDS011;32853;52.164;5.400;2024-02-16T14:58:17;2.45;;;1.60;;
47103;SDS011;32853;52.164;5.400;2024-02-16T15:00:42;2.65;;;1.40;;
47103;SDS011;32853;52.164;5.400;2024-02-16T15:03:15;4.28;;;1.20;;
47103;SDS011;32853;52.164;5.400;2024-02-16T15:05:51;3.03;;;1.95;;
47103;SDS011;32853;52.164;5.400;2024-02-16T15:08:17;2.35;;;1.77;;
47103;SDS011;32853;52.164;5.400;2024-02-16T15:10:42;2.88;;;1.77;;
47103;SDS011;32853;52.164;5.400;2024-02-16T15:13:09;5.47;;;1.60;;
47103;SDS011;32853;52.164;5.400;2024-02-16T15:15:35;7.35;;;2.55;;
47103;SDS011;32853;52.164;5.400;2024-02-16T15:18:00;5.60;;;2.80;;
47103;SDS011;32853;52.164;5.400;2024-02-16T15:20:38;4.75;;;2.35;;
47103;SDS011;32853;52.164;5.400;2024-02-16T15:23:10;4.50;;;2.60;;
47103;SDS011;32853;52.164;5.400;2024-02-16T15:25:36;4.30;;;3.07;;
47103;SDS011;32853;52.164;5.400;2024-02-16T15:28:07;6.03;;;3.10;;
47103;SDS011;32853;52.164;5.400;2024-02-16T15:30:41;6.70;;;3.72;;
47103;SDS011;32853;52.164;5.400;2024-02-16T15:33:06;6.28;;;4.07;;
47103;SDS011;32853;52.164;5.400;2024-02-16T15:35:32;9.27;;;4.15;;
47103;SDS011;32853;52.164;5.400;2024-02-16T15:37:57;7.78;;;3.47;;
47103;SDS011;32853;52.164;5.400;2024-02-16T15:40:23;6.93;;;3.67;;
47103;SDS011;32853;52.164;5.400;2024-02-16T15:43:03;6.00;;;3.67;;
47103;SDS011;32853;52.164;5.400;2024-02-16T15:45:33;6.35;;;3.88;;
47103;SDS011;32853;52.164;5.400;2024-02-16T15:48:14;7.90;;;4.22;;
47103;SDS011;32853;52.164;5.400;2024-02-16T15:50:43;8.35;;;4.15;;
47103;SDS011;32853;52.164;5.400;2024-02-16T15:53:12;8.32;;;4.88;;
47103;SDS011;32853;52.164;5.400;2024-02-16T15:55:40;7.18;;;5.15;;
47103;SDS011;32853;52.164;5.400;2024-02-16T15:58:10;10.20;;;5.15;;
47103;SDS011;32853;52.164;5.400;2024-02-16T16:00:49;11.93;;;4.28;;
47103;SDS011;32853;52.164;5.400;2024-02-16T16:03:23;7.32;;;4.53;;
47103;SDS011;32853;52.164;5.400;2024-02-16T16:05:55;5.53;;;3.75;;
47103;SDS011;32853;52.164;5.400;2024-02-16T16:08:35;7.07;;;4.60;;
47103;SDS011;32853;52.164;5.400;2024-02-16T16:11:03;9.13;;;4.90;;
47103;SDS011;32853;52.164;5.400;2024-02-16T16:13:29;11.70;;;4.97;;
47103;SDS011;32853;52.164;5.400;2024-02-16T16:15:57;9.77;;;4.82;;
47103;SDS011;32853;52.164;5.400;2024-02-16T16:18:23;8.88;;;5.13;;
47103;SDS011;32853;52.164;5.400;2024-02-16T16:20:49;8.07;;;4.78;;
47103;SDS011;32853;52.164;5.400;2024-02-16T16:23:17;6.38;;;4.35;;
47103;SDS011;32853;52.164;5.400;2024-02-16T16:25:43;8.07;;;4.82;;
47103;SDS011;32853;52.164;5.400;2024-02-16T16:28:08;14.80;;;4.93;;
47103;SDS011;32853;52.164;5.400;2024-02-16T16:30:38;9.68;;;4.43;;
47103;SDS011;32853;52.164;5.400;2024-02-16T16:33:04;9.80;;;5.20;;
47103;SDS011;32853;52.164;5.400;2024-02-16T16:35:30;6.90;;;4.78;;
47103;SDS011;32853;52.164;5.400;2024-02-16T16:37:58;8.32;;;4.13;;
47103;SDS011;32853;52.164;5.400;2024-02-16T16:40:24;10.57;;;4.60;;
47103;SDS011;32853;52.164;5.400;2024-02-16T16:42:58;7.10;;;5.28;;
47103;SDS011;32853;52.164;5.400;2024-02-16T16:45:32;11.10;;;5.82;;
47103;SDS011;32853;52.164;5.400;2024-02-16T16:47:58;10.15;;;5.38;;
47103;SDS011;32853;52.164;5.400;2024-02-16T16:50:23;10.23;;;4.97;;
47103;SDS011;32853;52.164;5.400;2024-02-16T16:52:51;13.70;;;5.55;;
47103;SDS011;32853;52.164;5.400;2024-02-16T16:55:17;12.18;;;5.50;;
47103;SDS011;32853;52.164;5.400;2024-02-16T16:57:43;8.25;;;5.32;;
47103;SDS011;32853;52.164;5.400;2024-02-16T17:00:09;10.20;;;5.93;;
47103;SDS011;32853;52.164;5.400;2024-02-16T17:02:37;7.88;;;4.97;;
47103;SDS011;32853;52.164;5.400;2024-02-16T17:05:05;13.10;;;4.68;;
47103;SDS011;32853;52.164;5.400;2024-02-16T17:07:34;11.38;;;4.80;;